sensor_id;sensor_type;location;lat;lon;timestamp;pressure;altitude;pressure_sealevel;temperature;humidity
50125;BME280;36023;48.670;6.184;2023-04-25T00:01:35;98479.63;;;17.34;42.37
50125;BME280;36023;48.670;6.184;2023-04-25T00:04:03;98477.03;;;17.34;41.78
50125;BME280;36023;48.670;6.184;2023-04-25T00:06:30;98479.63;;;17.34;42.05
50125;BME280;36023;48.670;6.184;2023-04-25T00:08:58;98480.56;;;17.33;42.17
50125;BME280;36023;48.670;6.184;2023-04-25T00:11:24;98473.56;;;17.33;42.16
50125;BME280;36023;48.670;6.184;2023-04-25T00:13:50;98471.88;;;17.32;42.07
50125;BME280;36023;48.670;6.184;2023-04-25T00:16:19;98476.19;;;17.33;42.17
50125;BME280;36023;48.670;6.184;2023-04-25T00:18:45;98470.09;;;17.33;41.94
50125;BME280;36023;48.670;6.184;2023-04-25T00:21:17;98469.25;;;17.32;42.02
50125;BME280;36023;48.670;6.184;2023-04-25T00:23:44;98471.03;;;17.32;41.96
50125;BME280;36023;48.670;6.184;2023-04-25T00:26:11;98473.66;;;17.32;42.18
50125;BME280;36023;48.670;6.184;2023-04-25T00:28:39;98480.66;;;17.31;42.01
50125;BME280;36023;48.670;6.184;2023-04-25T00:31:05;98475.44;;;17.31;42.08
50125;BME280;36023;48.670;6.184;2023-04-25T00:33:31;98470.19;;;17.31;42.05
50125;BME280;36023;48.670;6.184;2023-04-25T00:35:56;98461.50;;;17.31;42.15
50125;BME280;36023;48.670;6.184;2023-04-25T00:38:22;98457.13;;;17.31;41.92
50125;BME280;36023;48.670;6.184;2023-04-25T00:40:49;98455.44;;;17.30;42.08
50125;BME280;36023;48.670;6.184;2023-04-25T00:43:14;98455.34;;;17.32;42.29
50125;BME280;36023;48.670;6.184;2023-04-25T00:45:40;98457.22;;;17.30;42.07
50125;BME280;36023;48.670;6.184;2023-04-25T00:48:06;98454.59;;;17.30;42.12
50125;BME280;36023;48.670;6.184;2023-04-25T00:50:33;98447.66;;;17.29;42.25
50125;BME280;36023;48.670;6.184;2023-04-25T00:52:59;98452.81;;;17.30;42.19
50125;BME280;36023;48.670;6.184;2023-04-25T00:55:25;98451.97;;;17.30;42.23
50125;BME280;36023;48.670;6.184;2023-04-25T00:57:51;98449.34;;;17.30;42.30
50125;BME280;36023;48.670;6.184;2023-04-25T01:00:18;98448.50;;;17.29;42.39
50125;BME280;36023;48.670;6.184;2023-04-25T01:02:44;98444.13;;;17.30;42.09
50125;BME280;36023;48.670;6.184;2023-04-25T01:05:10;98441.41;;;17.31;42.36
50125;BME280;36023;48.670;6.184;2023-04-25T01:07:37;98438.78;;;17.31;42.38
50125;BME280;36023;48.670;6.184;2023-04-25T01:10:04;98434.50;;;17.30;42.39
50125;BME280;36023;48.670;6.184;2023-04-25T01:12:30;98436.28;;;17.30;42.51
50125;BME280;36023;48.670;6.184;2023-04-25T01:14:56;98424.03;;;17.30;42.56
50125;BME280;36023;48.670;6.184;2023-04-25T01:17:22;98434.50;;;17.30;42.44
50125;BME280;36023;48.670;6.184;2023-04-25T01:19:48;98432.81;;;17.29;42.43
50125;BME280;36023;48.670;6.184;2023-04-25T01:22:15;98425.91;;;17.28;42.53
50125;BME280;36023;48.670;6.184;2023-04-25T01:24:41;98427.56;;;17.29;42.47
50125;BME280;36023;48.670;6.184;2023-04-25T01:27:07;98423.19;;;17.30;42.62
50125;BME280;36023;48.670;6.184;2023-04-25T01:29:34;98416.28;;;17.29;42.42
50125;BME280;36023;48.670;6.184;2023-04-25T01:32:01;98431.97;;;17.29;42.59
50125;BME280;36023;48.670;6.184;2023-04-25T01:34:27;98425.06;;;17.27;42.64
50125;BME280;36023;48.670;6.184;2023-04-25T01:36:53;98424.19;;;17.27;42.47
50125;BME280;36023;48.670;6.184;2023-04-25T01:39:19;98424.97;;;17.29;42.58
50125;BME280;36023;48.670;6.184;2023-04-25T01:41:47;98416.34;;;17.27;42.57
50125;BME280;36023;48.670;6.184;2023-04-25T01:44:15;98418.94;;;17.27;42.54
50125;BME280;36023;48.670;6.184;2023-04-25T01:46:41;98413.72;;;17.27;42.66
50125;BME280;36023;48.670;6.184;2023-04-25T01:49:07;98406.81;;;17.26;42.59
50125;BME280;36023;48.670;6.184;2023-04-25T01:51:33;98408.56;;;17.25;42.73
50125;BME280;36023;48.670;6.184;2023-04-25T01:53:59;98417.25;;;17.26;42.67
50125;BME280;36023;48.670;6.184;2023-04-25T01:56:25;98416.44;;;17.25;42.63
50125;BME280;36023;48.670;6.184;2023-04-25T01:58:54;98416.44;;;17.25;42.69
50125;BME280;36023;48.670;6.184;2023-04-25T02:01:19;98412.03;;;17.26;42.87
50125;BME280;36023;48.670;6.184;2023-04-25T02:03:57;98406.06;;;17.24;42.48
50125;BME280;36023;48.670;6.184;2023-04-25T02:06:28;98412.97;;;17.25;42.56
50125;BME280;36023;48.670;6.184;2023-04-25T02:08:59;98403.44;;;17.24;42.66
50125;BME280;36023;48.670;6.184;2023-04-25T02:11:26;98407.81;;;17.23;42.57
50125;BME280;36023;48.670;6.184;2023-04-25T02:14:12;98412.13;;;17.24;42.74
50125;BME280;36023;48.670;6.184;2023-04-25T02:16:43;98407.81;;;17.23;42.69
50125;BME280;36023;48.670;6.184;2023-04-25T02:19:10;98408.66;;;17.24;42.67
50125;BME280;36023;48.670;6.184;2023-04-25T02:21:36;98416.53;;;17.24;42.60
50125;BME280;36023;48.670;6.184;2023-04-25T02:24:02;98419.13;;;17.24;42.60
50125;BME280;36023;48.670;6.184;2023-04-25T02:26:28;98418.28;;;17.23;42.71
50125;BME280;36023;48.670;6.184;2023-04-25T02:28:54;98415.69;;;17.23;42.64
50125;BME280;36023;48.670;6.184;2023-04-25T02:31:21;98416.63;;;17.22;42.71
50125;BME280;36023;48.670;6.184;2023-04-25T02:33:47;98419.22;;;17.22;42.85
50125;BME280;36023;48.670;6.184;2023-04-25T02:36:13;98421.84;;;17.22;42.88
50125;BME280;36023;48.670;6.184;2023-04-25T02:38:40;98417.56;;;17.21;42.70
50125;BME280;36023;48.670;6.184;2023-04-25T02:41:07;98414.94;;;17.21;42.84
50125;BME280;36023;48.670;6.184;2023-04-25T02:43:34;98423.63;;;17.22;42.89
50125;BME280;36023;48.670;6.184;2023-04-25T02:46:00;98420.16;;;17.21;42.79
50125;BME280;36023;48.670;6.184;2023-04-25T02:48:25;98421.84;;;17.22;42.76
50125;BME280;36023;48.670;6.184;2023-04-25T02:50:51;98421.00;;;17.22;42.95
50125;BME280;36023;48.670;6.184;2023-04-25T02:53:17;98422.78;;;17.21;43.02
50125;BME280;36023;48.670;6.184;2023-04-25T02:55:47;98420.16;;;17.21;42.77
50125;BME280;36023;48.670;6.184;2023-04-25T02:58:14;98420.16;;;17.21;43.00
50125;BME280;36023;48.670;6.184;2023-04-25T03:00:49;98416.72;;;17.21;42.85
50125;BME280;36023;48.670;6.184;2023-04-25T03:03:16;98421.94;;;17.21;43.04
50125;BME280;36023;48.670;6.184;2023-04-25T03:05:50;98416.72;;;17.21;42.88
50125;BME280;36023;48.670;6.184;2023-04-25T03:08:20;98416.78;;;17.19;43.05
50125;BME280;36023;48.670;6.184;2023-04-25T03:10:46;98415.88;;;17.20;42.56
50125;BME280;36023;48.670;6.184;2023-04-25T03:13:15;98416.78;;;17.19;42.78
50125;BME280;36023;48.670;6.184;2023-04-25T03:15:42;98412.41;;;17.20;42.89
50125;BME280;36023;48.670;6.184;2023-04-25T03:18:08;98406.31;;;17.19;42.90
50125;BME280;36023;48.670;6.184;2023-04-25T03:20:33;98395.84;;;17.19;42.90
50125;BME280;36023;48.670;6.184;2023-04-25T03:22:59;98399.31;;;17.20;43.07
50125;BME280;36023;48.670;6.184;2023-04-25T03:25:29;98390.69;;;17.18;43.02
50125;BME280;36023;48.670;6.184;2023-04-25T03:27:55;98389.84;;;17.17;43.12
50125;BME280;36023;48.670;6.184;2023-04-25T03:30:21;98382.00;;;17.17;42.71
50125;BME280;36023;48.670;6.184;2023-04-25T03:32:47;98375.94;;;17.17;43.12
50125;BME280;36023;48.670;6.184;2023-04-25T03:35:16;98362.00;;;17.16;42.95
50125;BME280;36023;48.670;6.184;2023-04-25T03:37:41;98353.22;;;17.17;43.12
50125;BME280;36023;48.670;6.184;2023-04-25T03:40:12;98364.63;;;17.16;42.95
50125;BME280;36023;48.670;6.184;2023-04-25T03:42:57;98362.84;;;17.17;42.98
50125;BME280;36023;48.670;6.184;2023-04-25T03:45:23;98379.50;;;17.16;42.89
50125;BME280;36023;48.670;6.184;2023-04-25T03:47:48;98378.66;;;17.15;42.96
50125;BME280;36023;48.670;6.184;2023-04-25T03:50:15;98389.13;;;17.15;42.89
50125;BME280;36023;48.670;6.184;2023-04-25T03:52:40;98395.19;;;17.16;42.95
50125;BME280;36023;48.670;6.184;2023-04-25T03:55:06;98392.66;;;17.14;43.08
50125;BME280;36023;48.670;6.184;2023-04-25T03:57:33;98392.66;;;17.14;43.03
50125;BME280;36023;48.670;6.184;2023-04-25T04:00:01;98395.28;;;17.14;42.97
50125;BME280;36023;48.670;6.184;2023-04-25T04:02:38;98402.28;;;17.14;43.04
50125;BME280;36023;48.670;6.184;2023-04-25T04:05:05;98406.69;;;17.13;43.04
50125;BME280;36023;48.670;6.184;2023-04-25T04:07:34;98408.47;;;17.13;43.04
50125;BME280;36023;48.670;6.184;2023-04-25T04:10:07;98404.06;;;17.13;43.17
50125;BME280;36023;48.670;6.184;2023-04-25T04:12:37;98406.69;;;17.13;42.94
50125;BME280;36023;48.670;6.184;2023-04-25T04:15:04;98405.91;;;17.11;42.98
50125;BME280;36023;48.670;6.184;2023-04-25T04:17:33;98413.75;;;17.11;43.02
50125;BME280;36023;48.670;6.184;2023-04-25T04:19:59;98412.06;;;17.10;42.94
50125;BME280;36023;48.670;6.184;2023-04-25T04:22:27;98412.91;;;17.11;43.12
50125;BME280;36023;48.670;6.184;2023-04-25T04:24:57;98408.53;;;17.11;43.23
50125;BME280;36023;48.670;6.184;2023-04-25T04:27:43;98410.22;;;17.12;42.98
50125;BME280;36023;48.670;6.184;2023-04-25T04:30:23;98407.69;;;17.11;43.12
50125;BME280;36023;48.670;6.184;2023-04-25T04:32:58;98408.53;;;17.11;43.13
50125;BME280;36023;48.670;6.184;2023-04-25T04:35:26;98412.06;;;17.10;43.08
50125;BME280;36023;48.670;6.184;2023-04-25T04:37:52;98408.53;;;17.11;43.46
50125;BME280;36023;48.670;6.184;2023-04-25T04:40:19;98416.31;;;17.13;43.56
50125;BME280;36023;48.670;6.184;2023-04-25T04:43:01;98409.19;;;17.15;43.65
50125;BME280;36023;48.670;6.184;2023-04-25T04:45:27;98415.94;;;17.19;43.79
50125;BME280;36023;48.670;6.184;2023-04-25T04:48:13;98420.91;;;17.23;43.83
50125;BME280;36023;48.670;6.184;2023-04-25T04:50:54;98422.25;;;17.31;43.88
50125;BME280;36023;48.670;6.184;2023-04-25T04:53:38;98419.28;;;17.37;43.93
50125;BME280;36023;48.670;6.184;2023-04-25T04:56:24;98416.28;;;17.43;43.80
50125;BME280;36023;48.670;6.184;2023-04-25T04:59:14;98425.56;;;17.48;43.64
50125;BME280;36023;48.670;6.184;2023-04-25T05:01:53;98425.31;;;17.53;43.70
50125;BME280;36023;48.670;6.184;2023-04-25T05:04:25;98428.47;;;17.58;43.72
50125;BME280;36023;48.670;6.184;2023-04-25T05:07:21;98436.91;;;17.63;43.65
50125;BME280;36023;48.670;6.184;2023-04-25T05:10:01;98435.81;;;17.67;43.72
50125;BME280;36023;48.670;6.184;2023-04-25T05:13:02;98444.25;;;17.72;43.67
50125;BME280;36023;48.670;6.184;2023-04-25T05:15:46;98449.31;;;17.75;43.74
50125;BME280;36023;48.670;6.184;2023-04-25T05:18:19;98449.13;;;17.78;43.34
50125;BME280;36023;48.670;6.184;2023-04-25T05:21:03;98455.97;;;17.81;43.45
50125;BME280;36023;48.670;6.184;2023-04-25T05:23:45;98456.63;;;17.85;43.45
50125;BME280;36023;48.670;6.184;2023-04-25T05:26:31;98466.09;;;17.87;43.43
50125;BME280;36023;48.670;6.184;2023-04-25T05:29:21;98471.16;;;17.90;43.47
50125;BME280;36023;48.670;6.184;2023-04-25T05:32:05;98466.66;;;17.92;43.35
50125;BME280;36023;48.670;6.184;2023-04-25T05:34:31;98470.03;;;17.94;43.13
50125;BME280;36023;48.670;6.184;2023-04-25T05:37:00;98474.31;;;17.95;43.32
50125;BME280;36023;48.670;6.184;2023-04-25T05:39:27;98475.06;;;17.97;43.21
50125;BME280;36023;48.670;6.184;2023-04-25T05:42:11;98471.44;;;18.00;43.39
50125;BME280;36023;48.670;6.184;2023-04-25T05:45:10;98473.13;;;18.01;43.13
50125;BME280;36023;48.670;6.184;2023-04-25T05:47:51;98474.06;;;18.00;43.26
50125;BME280;36023;48.670;6.184;2023-04-25T05:50:36;98478.47;;;17.99;43.22
50125;BME280;36023;48.670;6.184;2023-04-25T05:53:40;98483.81;;;17.98;43.25
50125;BME280;36023;48.670;6.184;2023-04-25T05:56:07;98487.31;;;17.97;43.29
50125;BME280;36023;48.670;6.184;2023-04-25T05:58:35;98481.25;;;17.96;43.51
50125;BME280;36023;48.670;6.184;2023-04-25T06:01:03;98489.03;;;17.98;43.71
50125;BME280;36023;48.670;6.184;2023-04-25T06:03:28;98490.63;;;18.00;43.98
50125;BME280;36023;48.670;6.184;2023-04-25T06:05:56;98489.59;;;18.03;44.52
50125;BME280;36023;48.670;6.184;2023-04-25T06:08:22;98492.22;;;18.03;44.71
50125;BME280;36023;48.670;6.184;2023-04-25T06:10:50;98500.91;;;18.03;45.04
50125;BME280;36023;48.670;6.184;2023-04-25T06:13:16;98493.88;;;18.04;45.31
50125;BME280;36023;48.670;6.184;2023-04-25T06:15:43;98496.59;;;18.02;45.39
50125;BME280;36023;48.670;6.184;2023-04-25T06:18:08;98498.28;;;18.03;45.36
50125;BME280;36023;48.670;6.184;2023-04-25T06:20:34;98498.38;;;18.02;45.61
50125;BME280;36023;48.670;6.184;2023-04-25T06:23:02;98508.03;;;18.01;46.03
50125;BME280;36023;48.670;6.184;2023-04-25T06:25:57;98514.31;;;17.99;46.10
50125;BME280;36023;48.670;6.184;2023-04-25T06:28:24;98521.38;;;17.97;46.21
50125;BME280;36023;48.670;6.184;2023-04-25T06:30:50;98519.91;;;17.93;46.27
50125;BME280;36023;48.670;6.184;2023-04-25T06:33:18;98520.06;;;17.90;46.27
50125;BME280;36023;48.670;6.184;2023-04-25T06:35:44;98519.41;;;17.86;46.50
50125;BME280;36023;48.670;6.184;2023-04-25T06:38:13;98529.22;;;17.83;46.22
50125;BME280;36023;48.670;6.184;2023-04-25T06:40:42;98530.34;;;17.78;46.57
50125;BME280;36023;48.670;6.184;2023-04-25T06:43:09;98540.06;;;17.76;46.54
50125;BME280;36023;48.670;6.184;2023-04-25T06:45:53;98534.91;;;17.75;46.68
50125;BME280;36023;48.670;6.184;2023-04-25T06:48:20;98545.56;;;17.72;46.80
50125;BME280;36023;48.670;6.184;2023-04-25T06:50:46;98541.31;;;17.69;46.81
50125;BME280;36023;48.670;6.184;2023-04-25T06:53:12;98540.56;;;17.67;46.95
50125;BME280;36023;48.670;6.184;2023-04-25T06:55:38;98548.47;;;17.66;46.99
50125;BME280;36023;48.670;6.184;2023-04-25T06:58:18;98550.34;;;17.64;47.01
50125;BME280;36023;48.670;6.184;2023-04-25T07:00:56;98547.09;;;17.60;47.17
50125;BME280;36023;48.670;6.184;2023-04-25T07:03:24;98552.31;;;17.60;46.96
50125;BME280;36023;48.670;6.184;2023-04-25T07:05:54;98551.53;;;17.58;46.87
50125;BME280;36023;48.670;6.184;2023-04-25T07:08:20;98551.63;;;17.57;46.95
50125;BME280;36023;48.670;6.184;2023-04-25T07:10:48;98547.41;;;17.54;47.01
50125;BME280;36023;48.670;6.184;2023-04-25T07:13:14;98549.28;;;17.52;46.86
50125;BME280;36023;48.670;6.184;2023-04-25T07:15:39;98558.09;;;17.51;46.96
50125;BME280;36023;48.670;6.184;2023-04-25T07:18:06;98555.53;;;17.49;47.00
50125;BME280;36023;48.670;6.184;2023-04-25T07:20:31;98559.91;;;17.49;46.84
50125;BME280;36023;48.670;6.184;2023-04-25T07:22:59;98562.63;;;17.47;46.90
50125;BME280;36023;48.670;6.184;2023-04-25T07:25:25;98562.72;;;17.46;46.84
50125;BME280;36023;48.670;6.184;2023-04-25T07:27:51;98567.97;;;17.46;46.82
50125;BME280;36023;48.670;6.184;2023-04-25T07:30:19;98570.66;;;17.44;46.91
50125;BME280;36023;48.670;6.184;2023-04-25T07:32:44;98577.69;;;17.44;46.84
50125;BME280;36023;48.670;6.184;2023-04-25T07:35:10;98575.97;;;17.43;46.87
50125;BME280;36023;48.670;6.184;2023-04-25T07:37:37;98579.50;;;17.42;46.72
50125;BME280;36023;48.670;6.184;2023-04-25T07:40:10;98590.00;;;17.42;46.87
50125;BME280;36023;48.670;6.184;2023-04-25T07:42:40;98584.00;;;17.40;46.81
50125;BME280;36023;48.670;6.184;2023-04-25T07:45:07;98590.16;;;17.39;46.86
50125;BME280;36023;48.670;6.184;2023-04-25T07:47:33;98586.63;;;17.40;46.69
50125;BME280;36023;48.670;6.184;2023-04-25T07:49:59;98592.88;;;17.37;46.70
50125;BME280;36023;48.670;6.184;2023-04-25T07:52:26;98591.25;;;17.35;46.98
50125;BME280;36023;48.670;6.184;2023-04-25T07:54:59;98595.66;;;17.34;46.85
50125;BME280;36023;48.670;6.184;2023-04-25T07:57:34;98594.81;;;17.34;46.70
50125;BME280;36023;48.670;6.184;2023-04-25T08:00:01;98600.13;;;17.32;46.65
50125;BME280;36023;48.670;6.184;2023-04-25T08:02:40;98596.66;;;17.32;46.62
50125;BME280;36023;48.670;6.184;2023-04-25T08:05:10;98598.53;;;17.30;46.66
50125;BME280;36023;48.670;6.184;2023-04-25T08:07:41;98599.47;;;17.29;46.58
50125;BME280;36023;48.670;6.184;2023-04-25T08:10:09;98603.84;;;17.28;46.72
50125;BME280;36023;48.670;6.184;2023-04-25T08:12:36;98604.59;;;17.30;46.17
50125;BME280;36023;48.670;6.184;2023-04-25T08:15:02;98609.00;;;17.30;46.38
50125;BME280;36023;48.670;6.184;2023-04-25T08:17:32;98602.94;;;17.29;46.43
50125;BME280;36023;48.670;6.184;2023-04-25T08:19:58;98610.88;;;17.27;46.32
50125;BME280;36023;48.670;6.184;2023-04-25T08:22:30;98607.38;;;17.27;46.34
50125;BME280;36023;48.670;6.184;2023-04-25T08:25:15;98615.22;;;17.27;46.50
50125;BME280;36023;48.670;6.184;2023-04-25T08:27:43;98617.09;;;17.25;46.27
50125;BME280;36023;48.670;6.184;2023-04-25T08:30:09;98615.41;;;17.24;46.48
50125;BME280;36023;48.670;6.184;2023-04-25T08:32:36;98613.72;;;17.23;46.34
50125;BME280;36023;48.670;6.184;2023-04-25T08:35:20;98617.19;;;17.23;46.31
50125;BME280;36023;48.670;6.184;2023-04-25T08:37:46;98632.88;;;17.23;46.47
50125;BME280;36023;48.670;6.184;2023-04-25T08:40:15;98626.81;;;17.23;46.38
50125;BME280;36023;48.670;6.184;2023-04-25T08:43:00;98635.50;;;17.23;46.46
50125;BME280;36023;48.670;6.184;2023-04-25T08:45:31;98629.50;;;17.21;46.39
50125;BME280;36023;48.670;6.184;2023-04-25T08:47:58;98641.75;;;17.21;46.38
50125;BME280;36023;48.670;6.184;2023-04-25T08:50:24;98646.91;;;17.22;46.37
50125;BME280;36023;48.670;6.184;2023-04-25T08:52:53;98649.59;;;17.21;46.23
50125;BME280;36023;48.670;6.184;2023-04-25T08:55:20;98653.16;;;17.20;46.12
50125;BME280;36023;48.670;6.184;2023-04-25T08:57:49;98649.66;;;17.19;45.84
50125;BME280;36023;48.670;6.184;2023-04-25T09:00:16;98657.50;;;17.19;45.95
50125;BME280;36023;48.670;6.184;2023-04-25T09:02:44;98659.38;;;17.17;45.98
50125;BME280;36023;48.670;6.184;2023-04-25T09:05:12;98666.47;;;17.15;45.65
50125;BME280;36023;48.670;6.184;2023-04-25T09:07:38;98665.63;;;17.15;45.57
50125;BME280;36023;48.670;6.184;2023-04-25T09:10:05;98663.09;;;17.13;45.49
50125;BME280;36023;48.670;6.184;2023-04-25T09:12:35;98667.50;;;17.13;45.36
50125;BME280;36023;48.670;6.184;2023-04-25T09:15:10;98670.16;;;17.11;45.35
50125;BME280;36023;48.670;6.184;2023-04-25T09:18:03;98675.47;;;17.10;45.32
50125;BME280;36023;48.670;6.184;2023-04-25T09:20:42;98674.63;;;17.09;45.39
50125;BME280;36023;48.670;6.184;2023-04-25T09:23:09;98675.47;;;17.10;45.26
50125;BME280;36023;48.670;6.184;2023-04-25T09:25:38;98677.25;;;17.09;45.07
50125;BME280;36023;48.670;6.184;2023-04-25T09:28:09;98677.25;;;17.09;45.26
50125;BME280;36023;48.670;6.184;2023-04-25T09:30:36;98679.13;;;17.07;44.95
50125;BME280;36023;48.670;6.184;2023-04-25T09:33:12;98684.34;;;17.07;44.87
50125;BME280;36023;48.670;6.184;2023-04-25T09:35:43;98686.13;;;17.07;45.00
50125;BME280;36023;48.670;6.184;2023-04-25T09:38:15;98690.50;;;17.06;44.92
50125;BME280;36023;48.670;6.184;2023-04-25T09:41:10;98681.81;;;17.06;44.87
50125;BME280;36023;48.670;6.184;2023-04-25T09:43:45;98688.81;;;17.05;44.86
50125;BME280;36023;48.670;6.184;2023-04-25T09:46:12;98687.97;;;17.05;44.73
50125;BME280;36023;48.670;6.184;2023-04-25T09:48:50;98689.72;;;17.04;44.73
50125;BME280;36023;48.670;6.184;2023-04-25T09:51:25;98688.03;;;17.03;44.62
50125;BME280;36023;48.670;6.184;2023-04-25T09:53:51;98689.81;;;17.03;44.47
50125;BME280;36023;48.670;6.184;2023-04-25T09:56:24;98691.59;;;17.02;44.53
50125;BME280;36023;48.670;6.184;2023-04-25T09:58:53;98698.59;;;17.02;44.39
50125;BME280;36023;48.670;6.184;2023-04-25T10:01:21;98693.34;;;17.02;44.21
50125;BME280;36023;48.670;6.184;2023-04-25T10:04:03;98694.28;;;17.01;44.28
50125;BME280;36023;48.670;6.184;2023-04-25T10:06:43;98694.28;;;17.01;44.29
50125;BME280;36023;48.670;6.184;2023-04-25T10:09:10;98693.44;;;17.00;44.39
50125;BME280;36023;48.670;6.184;2023-04-25T10:11:38;98707.44;;;16.99;43.93
50125;BME280;36023;48.670;6.184;2023-04-25T10:14:06;98712.69;;;16.99;44.32
50125;BME280;36023;48.670;6.184;2023-04-25T10:16:33;98717.06;;;16.98;44.03
50125;BME280;36023;48.670;6.184;2023-04-25T10:18:59;98716.22;;;16.98;43.80
50125;BME280;36023;48.670;6.184;2023-04-25T10:21:27;98720.53;;;16.99;44.25
50125;BME280;36023;48.670;6.184;2023-04-25T10:23:53;98725.78;;;16.99;44.00
50125;BME280;36023;48.670;6.184;2023-04-25T10:26:23;98712.81;;;16.96;44.07
50125;BME280;36023;48.670;6.184;2023-04-25T10:28:58;98718.84;;;16.98;44.06
50125;BME280;36023;48.670;6.184;2023-04-25T10:31:24;98718.00;;;16.97;43.90
50125;BME280;36023;48.670;6.184;2023-04-25T10:33:49;98708.47;;;16.96;44.09
50125;BME280;36023;48.670;6.184;2023-04-25T10:36:21;98710.16;;;16.97;43.92
50125;BME280;36023;48.670;6.184;2023-04-25T10:38:49;98708.47;;;16.96;44.02
50125;BME280;36023;48.670;6.184;2023-04-25T10:41:19;98713.63;;;16.98;44.00
50125;BME280;36023;48.670;6.184;2023-04-25T10:43:48;98716.31;;;16.96;43.97
50125;BME280;36023;48.670;6.184;2023-04-25T10:46:32;98706.75;;;16.95;44.14
50125;BME280;36023;48.670;6.184;2023-04-25T10:49:01;98705.84;;;16.96;44.06
50125;BME280;36023;48.670;6.184;2023-04-25T10:51:29;98699.69;;;16.97;44.09
50125;BME280;36023;48.670;6.184;2023-04-25T11:01:40;98716.31;;;16.96;44.06
50125;BME280;36023;48.670;6.184;2023-04-25T11:04:40;98718.84;;;16.98;44.34
50125;BME280;36023;48.670;6.184;2023-04-25T11:07:22;98710.16;;;16.97;44.18
50125;BME280;36023;48.670;6.184;2023-04-25T11:09:51;98708.38;;;16.98;44.30
50125;BME280;36023;48.670;6.184;2023-04-25T11:12:17;98713.63;;;16.98;44.23
50125;BME280;36023;48.670;6.184;2023-04-25T11:14:43;98718.84;;;16.98;44.23
50125;BME280;36023;48.670;6.184;2023-04-25T11:17:09;98717.06;;;16.98;44.30
50125;BME280;36023;48.670;6.184;2023-04-25T11:19:36;98718.84;;;16.98;44.24
50125;BME280;36023;48.670;6.184;2023-04-25T11:22:02;98718.84;;;16.98;44.37
50125;BME280;36023;48.670;6.184;2023-04-25T11:24:29;98712.78;;;16.97;44.48
50125;BME280;36023;48.670;6.184;2023-04-25T11:26:58;98712.69;;;16.99;44.46
50125;BME280;36023;48.670;6.184;2023-04-25T11:29:28;98716.22;;;16.98;44.27
50125;BME280;36023;48.670;6.184;2023-04-25T11:31:55;98716.22;;;16.98;44.30
50125;BME280;36023;48.670;6.184;2023-04-25T11:34:23;98716.22;;;16.98;44.57
50125;BME280;36023;48.670;6.184;2023-04-25T11:36:50;98721.47;;;16.98;44.54
50125;BME280;36023;48.670;6.184;2023-04-25T11:39:18;98720.66;;;16.96;44.53
50125;BME280;36023;48.670;6.184;2023-04-25T11:41:44;98729.41;;;16.96;44.50
50125;BME280;36023;48.670;6.184;2023-04-25T11:44:10;98718.06;;;16.96;44.54
50125;BME280;36023;48.670;6.184;2023-04-25T11:46:36;98729.31;;;16.98;44.56
50125;BME280;36023;48.670;6.184;2023-04-25T11:49:02;98724.06;;;16.98;44.46
50125;BME280;36023;48.670;6.184;2023-04-25T11:51:28;98725.00;;;16.97;44.63
50125;BME280;36023;48.670;6.184;2023-04-25T11:53:54;98720.66;;;16.96;44.57
50125;BME280;36023;48.670;6.184;2023-04-25T11:56:20;98729.41;;;16.96;44.67
50125;BME280;36023;48.670;6.184;2023-04-25T11:58:58;98732.06;;;16.95;44.58
50125;BME280;36023;48.670;6.184;2023-04-25T12:01:28;98729.44;;;16.95;44.61
50125;BME280;36023;48.670;6.184;2023-04-25T12:03:54;98731.13;;;16.96;44.67
50125;BME280;36023;48.670;6.184;2023-04-25T12:06:27;98732.91;;;16.95;44.72
50125;BME280;36023;48.670;6.184;2023-04-25T12:09:01;98741.59;;;16.96;44.69
50125;BME280;36023;48.670;6.184;2023-04-25T12:11:31;98743.38;;;16.95;44.83
50125;BME280;36023;48.670;6.184;2023-04-25T12:14:02;98740.75;;;16.95;44.81
50125;BME280;36023;48.670;6.184;2023-04-25T12:16:29;98746.00;;;16.95;44.74
50125;BME280;36023;48.670;6.184;2023-04-25T12:18:55;98750.31;;;16.96;44.92
50125;BME280;36023;48.670;6.184;2023-04-25T12:21:22;98748.59;;;16.95;44.95
50125;BME280;36023;48.670;6.184;2023-04-25T12:23:49;98746.84;;;16.96;44.91
50125;BME280;36023;48.670;6.184;2023-04-25T12:26:15;98752.16;;;16.94;44.80
50125;BME280;36023;48.670;6.184;2023-04-25T12:28:45;98759.06;;;16.95;44.98
50125;BME280;36023;48.670;6.184;2023-04-25T12:31:12;98764.31;;;16.95;44.98
50125;BME280;36023;48.670;6.184;2023-04-25T12:33:40;98759.91;;;16.96;45.28
50125;BME280;36023;48.670;6.184;2023-04-25T12:36:06;98766.03;;;16.96;45.03
50125;BME280;36023;48.670;6.184;2023-04-25T12:38:39;98762.53;;;16.96;45.21
50125;BME280;36023;48.670;6.184;2023-04-25T12:41:06;98760.78;;;16.96;45.05
50125;BME280;36023;48.670;6.184;2023-04-25T12:43:35;98756.44;;;16.95;45.18
50125;BME280;36023;48.670;6.184;2023-04-25T12:46:01;98763.47;;;16.95;45.26
50125;BME280;36023;48.670;6.184;2023-04-25T12:48:26;98759.06;;;16.95;45.34
50125;BME280;36023;48.670;6.184;2023-04-25T12:50:52;98759.91;;;16.96;45.40
50125;BME280;36023;48.670;6.184;2023-04-25T12:53:22;98768.63;;;16.96;45.52
50125;BME280;36023;48.670;6.184;2023-04-25T12:55:50;98776.41;;;16.98;45.41
50125;BME280;36023;48.670;6.184;2023-04-25T12:58:19;98780.84;;;16.96;45.43
50125;BME280;36023;48.670;6.184;2023-04-25T13:00:46;98788.63;;;16.97;45.50
50125;BME280;36023;48.670;6.184;2023-04-25T13:03:11;98794.72;;;16.98;45.62
50125;BME280;36023;48.670;6.184;2023-04-25T13:05:38;98807.78;;;16.98;45.75
50125;BME280;36023;48.670;6.184;2023-04-25T13:08:05;98809.47;;;16.99;45.69
50125;BME280;36023;48.670;6.184;2023-04-25T13:10:31;98804.25;;;16.99;45.79
50125;BME280;36023;48.670;6.184;2023-04-25T13:13:00;98801.63;;;16.99;45.93
50125;BME280;36023;48.670;6.184;2023-04-25T13:15:26;98806.03;;;16.98;46.01
50125;BME280;36023;48.670;6.184;2023-04-25T13:17:52;98801.63;;;16.99;46.02
50125;BME280;36023;48.670;6.184;2023-04-25T13:20:17;98799.84;;;16.99;45.88
50125;BME280;36023;48.670;6.184;2023-04-25T13:22:44;98803.31;;;17.00;46.14